Time;durP1;ratioP1;P1;durP2;ratioP2;P2;SDS_P1;SDS_P2;PMS_P1;PMS_P2;Temp;Humidity;BMP_temperature;BMP_pressure;BME280_temperature;BME280_humidity;BME280_pressure;Samples;Min_cycle;Max_cycle;Signal;HPM_P1;HPM_P2
2021/07/15 00:00:03;;;;;;;39.58;29.33;;;20.50;93.80;;;;;;4996544;28;20050;-87
2021/07/15 00:02:28;;;;;;;37.67;28.35;;;20.50;93.70;;;;;;4994020;28;20046;-86
2021/07/15 00:04:54;;;;;;;32.88;26.20;;;20.50;93.70;;;;;;4995646;28;20046;-85
2021/07/15 00:07:19;;;;;;;38.58;27.98;;;20.50;93.60;;;;;;4996801;28;20054;-85
2021/07/15 00:09:45;;;;;;;31.05;26.27;;;20.50;93.70;;;;;;4995508;28;20137;-86
2021/07/15 00:12:14;;;;;;;31.95;25.25;;;20.50;93.60;;;;;;4995777;28;20664;-85
2021/07/15 00:14:40;;;;;;;37.08;26.55;;;20.50;93.70;;;;;;4995557;28;20042;-85
2021/07/15 00:17:06;;;;;;;37.92;27.13;;;20.50;93.90;;;;;;4994336;28;20145;-84
2021/07/15 00:19:33;;;;;;;34.90;25.73;;;20.50;94.10;;;;;;4995981;28;20046;-86
2021/07/15 00:21:59;;;;;;;31.85;24.23;;;20.40;94.10;;;;;;4995784;28;20517;-84
2021/07/15 00:24:26;;;;;;;33.85;26.00;;;20.40;94.20;;;;;;4995639;28;20055;-84
2021/07/15 00:26:53;;;;;;;35.95;25.40;;;20.30;94.10;;;;;;4995621;28;20101;-85
2021/07/15 00:29:19;;;;;;;30.52;24.50;;;20.30;94.10;;;;;;4995676;28;20387;-85
2021/07/15 00:31:45;;;;;;;28.58;24.33;;;20.40;94.20;;;;;;4994528;28;20050;-85
2021/07/15 00:34:11;;;;;;;30.17;24.70;;;20.30;94.00;;;;;;4995463;28;20420;-86
2021/07/15 00:36:36;;;;;;;30.33;24.23;;;20.30;94.00;;;;;;4994263;28;20104;-86
2021/07/15 00:39:06;;;;;;;32.88;23.92;;;20.30;94.10;;;;;;4994424;28;20042;-86
2021/07/15 00:41:32;;;;;;;32.30;23.08;;;20.30;94.20;;;;;;4994585;28;20066;-87
2021/07/15 00:43:58;;;;;;;32.08;23.75;;;20.30;94.20;;;;;;4993623;28;20129;-88
2021/07/15 00:46:23;;;;;;;30.25;23.20;;;20.30;94.20;;;;;;4994944;28;20458;-90
2021/07/15 00:48:49;;;;;;;27.75;22.58;;;20.30;94.20;;;;;;4994347;28;20057;-88
2021/07/15 00:51:16;;;;;;;32.92;22.58;;;20.30;94.10;;;;;;4995211;28;20502;-88
2021/07/15 00:53:42;;;;;;;29.70;22.00;;;20.30;94.10;;;;;;4995251;28;20058;-93
2021/07/15 00:56:10;;;;;;;39.17;22.75;;;20.30;94.10;;;;;;4994710;28;20136;-90
2021/07/15 00:58:37;;;;;;;32.05;22.80;;;20.20;94.30;;;;;;4995252;28;20057;-89
2021/07/15 01:01:03;;;;;;;34.38;22.63;;;20.20;94.30;;;;;;4994597;28;20046;-92
2021/07/15 01:03:29;;;;;;;32.72;21.70;;;20.20;94.30;;;;;;4995303;28;20549;-90
2021/07/15 01:05:56;;;;;;;29.23;20.95;;;20.20;94.20;;;;;;4995000;28;20062;-92
2021/07/15 01:08:23;;;;;;;27.35;21.90;;;20.20;94.30;;;;;;4995055;28;20140;-90
2021/07/15 01:11:16;;;;;;;27.10;21.17;;;20.20;94.30;;;;;;4994962;28;20405;-91
2021/07/15 01:13:54;;;;;;;30.65;20.33;;;20.20;94.30;;;;;;4993316;28;20047;-91
2021/07/15 01:16:40;;;;;;;26.48;19.48;;;20.10;94.40;;;;;;4991204;28;20046;-92
2021/07/15 01:19:30;;;;;;;25.40;19.83;;;20.20;94.30;;;;;;4996056;28;20050;-93
2021/07/15 01:22:20;;;;;;;25.25;18.60;;;20.10;94.40;;;;;;4995624;28;20057;-90
2021/07/15 01:25:01;;;;;;;25.88;19.83;;;20.10;94.50;;;;;;4996943;28;20062;-92
2021/07/15 01:27:38;;;;;;;27.70;20.60;;;20.10;94.40;;;;;;4977041;28;20055;-92
2021/07/15 01:30:08;;;;;;;29.05;20.40;;;20.10;94.50;;;;;;4976994;28;20050;-94
2021/07/15 01:32:53;;;;;;;31.88;21.10;;;20.10;94.60;;;;;;4991726;28;20046;-92
2021/07/15 01:35:25;;;;;;;27.30;20.33;;;20.10;94.50;;;;;;4988893;28;20053;-91
2021/07/15 01:37:53;;;;;;;29.67;20.83;;;20.10;94.50;;;;;;4995355;28;20074;-92
2021/07/15 01:40:23;;;;;;;26.55;19.52;;;20.10;94.60;;;;;;4995878;28;20074;-90
2021/07/15 01:42:56;;;;;;;28.33;18.90;;;20.10;94.50;;;;;;4995833;28;20046;-92
2021/07/15 01:45:22;;;;;;;;;;;20.10;94.30;;;;;;4976841;28;20113;-90
2021/07/15 01:47:47;;;;;;;30.95;19.27;;;20.00;94.30;;;;;;4975521;28;20000;-91
2021/07/15 01:50:14;;;;;;;27.25;20.20;;;20.00;94.40;;;;;;4975573;28;20053;-91
2021/07/15 01:52:40;;;;;;;26.38;19.58;;;20.10;94.50;;;;;;4975418;28;20079;-92
2021/07/15 01:55:06;;;;;;;29.50;19.85;;;20.10;94.40;;;;;;4975040;28;20566;-91
2021/07/15 01:57:33;;;;;;;30.05;20.90;;;20.10;94.50;;;;;;4976430;28;20439;-91
2021/07/15 01:59:59;;;;;;;29.17;20.15;;;20.10;94.70;;;;;;4975473;28;20443;-90
2021/07/15 02:02:27;;;;;;;25.83;19.85;;;20.10;94.70;;;;;;4975535;28;20054;-92
2021/07/15 02:04:56;;;;;;;29.25;20.30;;;20.10;94.70;;;;;;4975798;28;20050;-90
2021/07/15 02:07:24;;;;;;;28.50;20.17;;;20.10;94.70;;;;;;4988014;28;20054;-91
2021/07/15 02:09:51;;;;;;;26.85;19.00;;;20.10;94.70;;;;;;4994960;28;20100;-91
2021/07/15 02:12:19;;;;;;;30.63;20.98;;;20.00;94.60;;;;;;4996244;28;20137;-92
2021/07/15 02:14:50;;;;;;;27.85;19.45;;;20.00;94.80;;;;;;4995526;28;20482;-93
2021/07/15 02:17:16;;;;;;;29.05;20.27;;;20.00;94.70;;;;;;4994674;28;20505;-92
2021/07/15 02:19:43;;;;;;;30.98;20.48;;;20.00;94.80;;;;;;4996147;28;20050;-95
2021/07/15 02:22:11;;;;;;;28.20;20.80;;;20.00;94.80;;;;;;4995333;28;20080;-92
2021/07/15 02:24:39;;;;;;;27.05;18.02;;;20.00;94.80;;;;;;4996038;28;20050;-90
2021/07/15 02:27:06;;;;;;;28.50;20.65;;;20.10;94.70;;;;;;4995962;28;20054;-94
2021/07/15 02:29:34;;;;;;;27.95;19.98;;;20.10;94.70;;;;;;4995648;28;20127;-92
2021/07/15 02:32:07;;;;;;;27.60;20.30;;;20.10;94.70;;;;;;4994458;28;20077;-91
2021/07/15 02:34:45;;;;;;;29.85;19.17;;;20.10;94.70;;;;;;4995022;28;20377;-93
2021/07/15 02:37:14;;;;;;;29.73;19.83;;;20.00;94.60;;;;;;4994977;28;20054;-93
2021/07/15 02:39:40;;;;;;;36.70;20.52;;;20.10;94.70;;;;;;4995184;28;20126;-91
2021/07/15 02:42:06;;;;;;;30.48;20.35;;;20.10;94.80;;;;;;4994111;28;20141;-96
2021/07/15 02:44:32;;;;;;;31.75;20.77;;;20.10;94.80;;;;;;4994922;28;20069;-91
2021/07/15 02:46:58;;;;;;;29.15;19.58;;;20.10;94.80;;;;;;4995316;28;20052;-91
2021/07/15 02:49:23;;;;;;;36.97;20.38;;;20.10;94.70;;;;;;4995493;28;20046;-91
2021/07/15 02:51:49;;;;;;;38.60;20.40;;;20.00;94.70;;;;;;4993905;28;20140;-92
2021/07/15 02:54:16;;;;;;;29.33;18.17;;;20.00;94.80;;;;;;4994700;28;20050;-91
2021/07/15 02:56:50;;;;;;;31.80;19.50;;;20.00;94.70;;;;;;4995727;28;20103;-93
2021/07/15 02:59:52;;;;;;;28.95;17.20;;;20.00;94.80;;;;;;4994774;28;20054;-92
2021/07/15 03:02:22;;;;;;;38.25;19.30;;;19.90;94.70;;;;;;4990050;28;20054;-94
2021/07/15 03:04:58;;;;;;;33.67;19.20;;;19.90;94.90;;;;;;4995998;28;20125;-93
2021/07/15 03:07:26;;;;;;;36.47;18.20;;;19.90;94.90;;;;;;4995497;28;20051;-93
2021/07/15 03:09:54;;;;;;;28.17;17.83;;;19.90;94.90;;;;;;4994666;28;20050;-96
2021/07/15 03:12:22;;;;;;;31.65;17.00;;;19.80;94.80;;;;;;4994751;28;20137;-92
2021/07/15 03:14:50;;;;;;;32.50;18.27;;;19.80;94.90;;;;;;4995056;28;20050;-93
2021/07/15 03:17:22;;;;;;;32.85;18.02;;;19.80;94.90;;;;;;4993365;28;20097;-88
2021/07/15 03:19:51;;;;;;;29.85;16.95;;;19.80;94.90;;;;;;4994797;28;20050;-89
2021/07/15 03:22:17;;;;;;;29.00;17.50;;;19.80;94.90;;;;;;4998336;28;20509;-90
2021/07/15 03:24:58;;;;;;;27.60;15.75;;;19.80;94.90;;;;;;4998488;28;20046;-91
2021/07/15 03:27:27;;;;;;;26.38;16.13;;;19.80;94.70;;;;;;4997494;28;20498;-91
2021/07/15 03:29:55;;;;;;;27.08;15.00;;;19.80;94.80;;;;;;4998200;28;20406;-88
2021/07/15 03:32:22;;;;;;;33.47;16.45;;;19.80;94.80;;;;;;4997759;28;20081;-91
2021/07/15 03:34:49;;;;;;;27.58;15.43;;;19.80;94.80;;;;;;4997512;28;20486;-91
2021/07/15 03:37:16;;;;;;;26.73;15.15;;;19.80;94.80;;;;;;4997791;28;20418;-89
2021/07/15 03:39:45;;;;;;;29.83;16.50;;;19.90;94.70;;;;;;4998181;28;20046;-90
2021/07/15 03:42:11;;;;;;;27.17;15.25;;;19.80;94.80;;;;;;4996841;28;20081;-89
2021/07/15 03:44:38;;;;;;;29.27;16.10;;;19.80;94.80;;;;;;4995088;28;20555;-88
2021/07/15 03:47:04;;;;;;;27.83;15.82;;;19.80;94.80;;;;;;4996303;28;20132;-91
2021/07/15 03:49:32;;;;;;;31.90;15.88;;;19.90;94.80;;;;;;4999882;28;20050;-90
2021/07/15 03:51:58;;;;;;;29.27;14.85;;;19.90;94.70;;;;;;5002610;28;20046;-88
2021/07/15 03:54:25;;;;;;;29.70;16.27;;;19.80;94.60;;;;;;5004101;28;20106;-88
2021/07/15 03:56:52;;;;;;;37.22;15.90;;;19.90;94.70;;;;;;5001300;28;20108;-89
2021/07/15 03:59:19;;;;;;;26.75;15.43;;;19.90;94.80;;;;;;5000714;28;20548;-89
2021/07/15 04:01:55;;;;;;;28.33;15.82;;;19.80;94.80;;;;;;4998407;28;20057;-90
2021/07/15 04:04:27;;;;;;;32.67;16.15;;;19.80;94.70;;;;;;4997773;28;20054;-89
2021/07/15 04:06:53;;;;;;;24.40;14.35;;;19.80;94.80;;;;;;4997373;28;20046;-89
2021/07/15 04:09:19;;;;;;;30.02;15.68;;;19.80;94.80;;;;;;4996786;28;20061;-91
2021/07/15 04:11:47;;;;;;;30.15;15.68;;;19.80;94.80;;;;;;4996605;28;20136;-89
2021/07/15 04:14:49;;;;;;;26.10;14.85;;;19.80;94.70;;;;;;4997650;28;20502;-88
2021/07/15 04:17:17;;;;;;;26.65;14.57;;;19.80;94.60;;;;;;4964290;28;20105;-89
2021/07/15 04:19:44;;;;;;;26.48;14.88;;;19.80;94.60;;;;;;4998006;28;20133;-91
2021/07/15 04:22:12;;;;;;;30.92;15.32;;;19.80;94.60;;;;;;4997847;28;20129;-91
2021/07/15 04:24:43;;;;;;;28.08;14.18;;;19.80;94.70;;;;;;4996980;28;20401;-91
2021/07/15 04:27:10;;;;;;;30.60;14.88;;;19.80;94.60;;;;;;4997821;28;20060;-90
2021/07/15 04:29:37;;;;;;;31.65;14.50;;;19.80;94.70;;;;;;4997702;28;20054;-88
2021/07/15 04:32:05;;;;;;;28.27;14.30;;;19.80;94.70;;;;;;4996521;28;20062;-89
2021/07/15 04:34:33;;;;;;;24.58;14.32;;;19.80;94.70;;;;;;4997026;28;20047;-93
2021/07/15 04:36:59;;;;;;;25.08;13.77;;;19.80;94.80;;;;;;4996479;28;20054;-92
2021/07/15 04:39:26;;;;;;;27.85;14.68;;;19.70;94.70;;;;;;4998047;28;20153;-92
2021/07/15 04:41:56;;;;;;;25.17;14.55;;;19.70;94.70;;;;;;4997787;28;20054;-92
2021/07/15 04:44:23;;;;;;;25.73;14.48;;;19.70;94.70;;;;;;4997060;28;20101;-91
2021/07/15 04:46:51;;;;;;;23.45;12.75;;;19.70;94.60;;;;;;4998061;28;20050;-94
2021/07/15 04:49:18;;;;;;;23.77;13.43;;;19.70;94.50;;;;;;4997858;28;20056;-89
2021/07/15 04:51:45;;;;;;;27.60;14.15;;;19.70;94.60;;;;;;4997947;28;20057;-90
2021/07/15 04:54:12;;;;;;;28.38;14.70;;;19.70;94.60;;;;;;4998542;28;20061;-95
2021/07/15 04:56:39;;;;;;;27.10;14.00;;;19.70;94.70;;;;;;4998466;28;20085;-91
2021/07/15 04:59:05;;;;;;;27.63;14.60;;;19.70;94.60;;;;;;4996777;28;20486;-89
2021/07/15 05:01:31;;;;;;;26.15;14.18;;;19.70;94.70;;;;;;4996958;28;20046;-89
2021/07/15 05:03:57;;;;;;;19.38;12.55;;;19.60;94.70;;;;;;4994985;28;20562;-91
2021/07/15 05:06:23;;;;;;;25.42;13.90;;;19.60;94.70;;;;;;4995160;28;20046;-92
2021/07/15 05:08:49;;;;;;;22.95;12.75;;;19.60;94.70;;;;;;4996279;28;20525;-88
2021/07/15 05:11:15;;;;;;;27.48;14.10;;;19.60;94.70;;;;;;4995419;28;20050;-87
2021/07/15 05:13:41;;;;;;;23.92;13.98;;;19.60;94.80;;;;;;4995249;28;20486;-87
2021/07/15 05:16:07;;;;;;;26.10;13.65;;;19.60;94.80;;;;;;4996209;28;20074;-91
2021/07/15 05:18:34;;;;;;;21.98;13.52;;;19.60;94.80;;;;;;4994852;28;20042;-91
2021/07/15 05:21:00;;;;;;;24.73;14.00;;;19.60;94.80;;;;;;4994649;28;20046;-89
2021/07/15 05:23:25;;;;;;;27.58;13.40;;;19.60;94.80;;;;;;4996456;28;20046;-91
2021/07/15 05:25:52;;;;;;;25.27;13.70;;;19.60;94.70;;;;;;4997162;28;20047;-90
2021/07/15 05:28:18;;;;;;;23.70;13.10;;;19.60;94.80;;;;;;4996403;28;20552;-90
2021/07/15 05:30:44;;;;;;;27.98;14.68;;;19.60;94.60;;;;;;4995426;28;20129;-91
2021/07/15 05:33:10;;;;;;;30.50;14.82;;;19.60;94.80;;;;;;4995499;28;20129;-90
2021/07/15 05:35:36;;;;;;;22.98;12.93;;;19.60;94.80;;;;;;4995602;28;20200;-91
2021/07/15 05:38:04;;;;;;;26.42;14.07;;;19.60;94.70;;;;;;4989202;28;20054;-93
2021/07/15 05:40:30;;;;;;;25.92;13.40;;;19.60;94.70;;;;;;5007159;28;20482;-90
2021/07/15 05:42:56;;;;;;;24.15;13.55;;;19.60;94.70;;;;;;4997133;28;20240;-89
2021/07/15 05:45:24;;;;;;;24.80;12.48;;;19.60;94.70;;;;;;4995204;28;20133;-85
2021/07/15 05:47:50;;;;;;;30.00;14.18;;;19.60;94.70;;;;;;5004662;28;20485;-89
2021/07/15 05:50:16;;;;;;;20.65;12.73;;;19.60;94.80;;;;;;5014232;28;20044;-90
2021/07/15 05:52:42;;;;;;;29.75;13.05;;;19.60;94.70;;;;;;4997529;28;20081;-90
2021/07/15 05:55:18;;;;;;;22.35;12.32;;;19.60;95.10;;;;;;5006952;28;20132;-89
2021/07/15 05:57:47;;;;;;;24.25;12.73;;;19.60;94.70;;;;;;5004414;28;20552;-87
2021/07/15 06:00:19;;;;;;;25.02;12.30;;;19.60;94.70;;;;;;4976602;28;20106;-89
2021/07/15 06:10:45;;;;;;;26.23;11.68;;;19.50;94.60;;;;;;4943651;28;20113;-89
2021/07/15 06:30:23;;;;;;;33.50;13.18;;;19.50;94.70;;;;;;5194664;23;20049;-88
2021/07/15 06:33:30;;;;;;;25.23;11.52;;;19.50;94.80;;;;;;5031592;28;20449;-90
2021/07/15 06:36:46;;;;;;;;;;;;;;;;;;;;;
2021/07/15 06:40:02;;;;;;;;;;;19.50;94.60;;;;;;4998792;28;20507;-89
2021/07/15 06:46:25;;;;;;;23.40;11.32;;;19.50;94.70;;;;;;5053459;28;20047;-88
2021/07/15 06:49:02;;;;;;;26.02;12.50;;;19.50;94.60;;;;;;5056633;28;20052;-88
2021/07/15 06:51:28;;;;;;;31.58;12.02;;;19.50;94.60;;;;;;5068948;28;20057;-90
2021/07/15 06:54:05;;;;;;;21.30;11.15;;;19.50;94.60;;;;;;5069980;28;20050;-88
2021/07/15 06:56:36;;;;;;;24.25;11.52;;;19.50;94.50;;;;;;5073096;28;20424;-87
2021/07/15 06:59:02;;;;;;;26.13;11.48;;;19.50;94.60;;;;;;5072434;28;20044;-88
2021/07/15 07:01:27;;;;;;;24.92;11.90;;;19.50;94.70;;;;;;5066182;28;20071;-90
2021/07/15 07:03:59;;;;;;;22.33;10.65;;;19.50;95.10;;;;;;5053129;28;20049;-89
2021/07/15 07:06:24;;;;;;;25.88;10.50;;;19.50;94.60;;;;;;5052816;28;20056;-88
2021/07/15 07:08:50;;;;;;;26.35;10.75;;;19.50;94.70;;;;;;5053744;28;20127;-87
2021/07/15 07:11:15;;;;;;;29.48;11.40;;;19.50;94.60;;;;;;5053351;28;20408;-81
2021/07/15 07:13:41;;;;;;;23.55;10.27;;;19.50;94.70;;;;;;5054382;28;20057;-81
2021/07/15 07:16:07;;;;;;;21.83;10.35;;;19.50;94.80;;;;;;5074794;28;20044;-83
2021/07/15 07:18:32;;;;;;;22.42;10.13;;;19.50;94.70;;;;;;5070525;28;20135;-84
2021/07/15 07:21:00;;;;;;;24.33;10.38;;;19.50;94.70;;;;;;5074021;28;20049;-85
2021/07/15 07:23:26;;;;;;;25.17;9.93;;;19.50;94.70;;;;;;5058347;28;20040;-84
2021/07/15 07:25:51;;;;;;;20.25;9.73;;;19.50;94.80;;;;;;5054888;28;20040;-84
2021/07/15 07:28:17;;;;;;;19.48;9.70;;;19.50;94.70;;;;;;5080248;28;20388;-83
2021/07/15 07:30:43;;;;;;;19.40;9.05;;;19.40;94.60;;;;;;5076334;28;20056;-83
2021/07/15 07:33:10;;;;;;;17.35;8.52;;;19.40;94.70;;;;;;5069656;28;20049;-83
2021/07/15 07:35:35;;;;;;;17.20;8.70;;;19.40;94.60;;;;;;5061506;28;20458;-84
2021/07/15 07:38:02;;;;;;;22.30;8.60;;;19.40;94.60;;;;;;5054154;28;20072;-84
2021/07/15 07:40:28;;;;;;;17.35;7.80;;;19.40;94.60;;;;;;5056474;28;20128;-84
2021/07/15 07:42:54;;;;;;;22.58;8.40;;;19.40;94.70;;;;;;5052648;28;20132;-86
2021/07/15 07:45:19;;;;;;;21.85;8.18;;;19.40;94.70;;;;;;5057437;28;20067;-86
2021/07/15 07:47:45;;;;;;;23.35;8.77;;;19.40;94.70;;;;;;5055601;28;20041;-84
2021/07/15 07:50:12;;;;;;;17.95;7.65;;;19.40;94.70;;;;;;5052475;28;20163;-82
2021/07/15 07:52:39;;;;;;;15.60;7.57;;;19.40;94.70;;;;;;5052938;28;20052;-81
2021/07/15 07:55:07;;;;;;;18.30;8.00;;;19.40;94.60;;;;;;5055377;28;20041;-83
2021/07/15 07:57:33;;;;;;;20.58;8.30;;;19.40;94.70;;;;;;5059919;28;20052;-83
2021/07/15 08:00:00;;;;;;;24.45;8.52;;;19.40;94.70;;;;;;5058860;28;20114;-81
2021/07/15 08:02:26;;;;;;;18.90;8.05;;;19.40;94.70;;;;;;5056747;28;20507;-82
2021/07/15 08:04:52;;;;;;;19.60;7.68;;;19.40;94.80;;;;;;5064861;28;20040;-81
2021/07/15 08:07:18;;;;;;;20.77;7.95;;;19.40;94.80;;;;;;5073247;28;20496;-82
2021/07/15 08:09:45;;;;;;;18.25;7.95;;;19.40;94.80;;;;;;5067428;28;20052;-83
2021/07/15 08:12:13;;;;;;;18.35;7.30;;;19.40;94.80;;;;;;5056865;28;20204;-83
2021/07/15 08:14:38;;;;;;;13.85;6.68;;;19.40;94.80;;;;;;5057791;28;20485;-80
2021/07/15 08:17:04;;;;;;;14.20;7.35;;;19.30;95.20;;;;;;5066852;28;20101;-82
2021/07/15 08:19:30;;;;;;;13.73;6.90;;;19.30;94.90;;;;;;5074015;28;20044;-83
2021/07/15 08:21:55;;;;;;;16.77;7.32;;;19.30;94.90;;;;;;5074656;28;20412;-82
2021/07/15 08:24:21;;;;;;;16.88;7.80;;;19.30;94.90;;;;;;5066221;28;20055;-82
2021/07/15 08:26:47;;;;;;;21.02;7.68;;;19.30;94.90;;;;;;5073535;28;20451;-84
2021/07/15 08:29:14;;;;;;;24.63;8.68;;;19.20;94.90;;;;;;5074534;28;20052;-84
2021/07/15 08:31:40;;;;;;;15.57;7.93;;;19.20;94.90;;;;;;5073918;28;20496;-84
2021/07/15 08:34:07;;;;;;;20.98;8.63;;;19.20;94.90;;;;;;5074563;28;20110;-86
2021/07/15 08:36:33;;;;;;;23.75;8.65;;;19.20;95.00;;;;;;5072428;28;20484;-84
2021/07/15 08:38:59;;;;;;;20.85;8.93;;;19.20;95.00;;;;;;5064647;28;20070;-86
2021/07/15 08:41:25;;;;;;;23.50;8.85;;;19.20;95.10;;;;;;5080969;28;20040;-85
2021/07/15 08:43:52;;;;;;;22.20;9.05;;;19.20;95.10;;;;;;5069253;28;20071;-83
2021/07/15 08:46:20;;;;;;;21.60;9.40;;;19.20;95.10;;;;;;5067008;28;20094;-84
2021/07/15 08:48:46;;;;;;;25.15;9.63;;;19.20;95.10;;;;;;5059160;28;20052;-83
2021/07/15 08:51:13;;;;;;;18.25;9.15;;;19.20;95.10;;;;;;5073408;28;20048;-84
2021/07/15 08:53:42;;;;;;;17.58;7.88;;;19.20;95.10;;;;;;5069963;28;20057;-85
2021/07/15 08:58:52;;;;;;;23.52;10.18;;;19.20;95.00;;;;;;5084349;28;20071;-86
2021/07/15 09:01:18;;;;;;;20.80;9.23;;;19.20;95.00;;;;;;5070633;28;20056;-85
2021/07/15 09:03:44;;;;;;;21.20;9.02;;;19.20;95.00;;;;;;5092290;28;20052;-83
2021/07/15 09:06:10;;;;;;;17.38;8.75;;;19.20;95.00;;;;;;5087022;28;20046;-85
2021/07/15 09:08:36;;;;;;;20.20;9.70;;;19.20;95.00;;;;;;5095221;28;20098;-84
2021/07/15 09:11:02;;;;;;;21.63;9.70;;;19.10;95.00;;;;;;5094120;28;20052;-84
2021/07/15 09:13:28;;;;;;;20.27;9.15;;;19.20;95.00;;;;;;5084381;28;20060;-84
2021/07/15 09:15:54;;;;;;;19.30;9.05;;;19.20;95.00;;;;;;5070114;28;20060;-85
2021/07/15 09:18:20;;;;;;;21.17;8.55;;;19.20;95.00;;;;;;5070870;28;20048;-84
2021/07/15 09:20:46;;;;;;;18.85;8.63;;;19.20;95.00;;;;;;5074940;28;20447;-83
2021/07/15 09:23:13;;;;;;;19.48;8.60;;;19.20;95.10;;;;;;5074223;28;20135;-83
2021/07/15 09:25:39;;;;;;;19.63;8.82;;;19.20;95.10;;;;;;5073406;28;20124;-85
2021/07/15 09:28:13;;;;;;;16.23;7.88;;;19.20;95.10;;;;;;5073936;28;20060;-85
2021/07/15 09:30:40;;;;;;;17.88;8.82;;;19.20;95.10;;;;;;5074225;28;20173;-86
2021/07/15 09:33:11;;;;;;;18.20;8.68;;;19.20;95.10;;;;;;5063650;28;20131;-85
2021/07/15 09:35:40;;;;;;;15.90;7.88;;;19.20;95.00;;;;;;5062724;28;20049;-85
2021/07/15 09:38:16;;;;;;;15.20;7.30;;;19.20;95.00;;;;;;5064227;28;20117;-85
2021/07/15 09:40:48;;;;;;;15.18;8.13;;;19.20;94.90;;;;;;5057363;28;20129;-85
2021/07/15 09:43:25;;;;;;;15.77;7.72;;;19.20;95.00;;;;;;5073989;28;20059;-87
2021/07/15 09:45:56;;;;;;;16.00;7.85;;;19.20;94.90;;;;;;5073537;28;20125;-87
2021/07/15 09:48:29;;;;;;;15.38;7.30;;;19.20;95.00;;;;;;5073092;28;20078;-87
2021/07/15 09:50:57;;;;;;;17.48;7.85;;;19.20;94.90;;;;;;5073465;28;20044;-85
2021/07/15 09:53:33;;;;;;;15.30;7.10;;;19.30;95.30;;;;;;5069256;28;20079;-86
2021/07/15 09:56:00;;;;;;;11.63;6.75;;;19.30;95.00;;;;;;5067425;28;20124;-86
2021/07/15 09:58:31;;;;;;;13.07;7.05;;;19.20;94.90;;;;;;5073815;28;20088;-86
2021/07/15 10:01:07;;;;;;;12.05;6.70;;;19.20;94.90;;;;;;5072620;28;20072;-86
2021/07/15 10:03:41;;;;;;;11.38;5.60;;;19.20;94.90;;;;;;5072841;28;20076;-85
2021/07/15 10:06:08;;;;;;;10.35;6.03;;;19.20;94.90;;;;;;5063198;28;20048;-86
2021/07/15 10:08:36;;;;;;;13.95;6.60;;;19.20;94.90;;;;;;5067810;28;20071;-87
2021/07/15 10:11:36;;;;;;;15.20;6.68;;;19.20;94.90;;;;;;5088883;28;20074;-88
2021/07/15 10:14:10;;;;;;;11.20;6.00;;;19.20;94.70;;;;;;5020128;28;20073;-91
2021/07/15 10:16:41;;;;;;;16.13;6.57;;;19.20;94.90;;;;;;5052784;28;20139;-89
2021/07/15 10:19:16;;;;;;;21.95;8.65;;;19.20;94.80;;;;;;5055902;28;20045;-81
2021/07/15 10:21:42;;;;;;;18.17;8.30;;;19.20;95.00;;;;;;5055233;28;20073;-81
2021/07/15 10:24:22;;;;;;;15.50;7.15;;;19.20;95.00;;;;;;5072811;28;20053;-89
2021/07/15 10:26:50;;;;;;;19.83;8.82;;;19.10;94.90;;;;;;5072750;28;20522;-87
2021/07/15 10:29:17;;;;;;;15.27;7.43;;;19.10;95.40;;;;;;5069691;28;20056;-86
2021/07/15 10:31:44;;;;;;;19.98;8.88;;;19.10;95.00;;;;;;5058442;28;20551;-89
2021/07/15 10:34:11;;;;;;;22.45;8.52;;;19.10;95.10;;;;;;5062559;28;20048;-89
2021/07/15 10:36:39;;;;;;;20.95;8.52;;;19.10;95.10;;;;;;5087296;28;20048;-89
2021/07/15 10:39:11;;;;;;;23.48;9.25;;;19.10;95.10;;;;;;5077189;28;20048;-85
2021/07/15 10:41:44;;;;;;;20.38;8.13;;;19.10;95.10;;;;;;5074070;28;20055;-89
2021/07/15 10:44:10;;;;;;;20.23;8.23;;;19.10;95.00;;;;;;5060658;28;20090;-87
2021/07/15 10:46:37;;;;;;;26.40;9.65;;;19.10;95.10;;;;;;5076879;28;20408;-87
2021/07/15 10:49:07;;;;;;;24.02;9.73;;;19.10;95.10;;;;;;5088589;28;20068;-91
2021/07/15 10:51:34;;;;;;;24.48;9.52;;;19.10;95.10;;;;;;5072642;28;20072;-89
2021/07/15 10:54:01;;;;;;;25.67;9.55;;;19.10;95.20;;;;;;5063554;28;20041;-89
2021/07/15 10:56:29;;;;;;;20.58;8.98;;;19.20;95.20;;;;;;5073265;28;20082;-88
2021/07/15 10:58:56;;;;;;;21.65;8.60;;;19.10;95.10;;;;;;5087180;28;20064;-88
2021/07/15 11:04:10;;;;;;;24.23;9.23;;;19.20;95.00;;;;;;5051934;28;20041;-86
2021/07/15 11:06:38;;;;;;;;;;;19.20;95.00;;;;;;5054109;28;20049;-88
2021/07/15 11:09:04;;;;;;;29.42;9.52;;;19.20;94.90;;;;;;5053082;28;20288;-89
2021/07/15 11:11:37;;;;;;;21.70;8.98;;;19.20;95.10;;;;;;5054051;28;20053;-88
2021/07/15 11:14:04;;;;;;;22.10;8.85;;;19.30;95.00;;;;;;5052755;28;20045;-88
2021/07/15 11:16:52;;;;;;;19.65;8.88;;;19.30;94.90;;;;;;5053011;28;20055;-88
2021/07/15 11:19:57;;;;;;;18.60;8.30;;;19.30;94.70;;;;;;5052902;28;20052;-89
2021/07/15 11:22:44;;;;;;;21.45;8.63;;;19.30;94.60;;;;;;5053492;28;20045;-88
2021/07/15 11:25:36;;;;;;;20.08;8.65;;;19.30;94.60;;;;;;5067532;28;20080;-88
2021/07/15 11:28:23;;;;;;;22.77;8.95;;;19.30;94.70;;;;;;5073151;28;20048;-89
2021/07/15 11:30:53;;;;;;;19.60;9.35;;;19.40;94.60;;;;;;5072881;28;20439;-89
2021/07/15 11:33:19;;;;;;;22.92;9.30;;;19.40;94.60;;;;;;5072408;28;20053;-89
2021/07/15 11:36:10;;;;;;;15.85;8.10;;;19.40;94.50;;;;;;5064776;28;20064;-89
2021/07/15 11:39:05;;;;;;;19.58;8.35;;;19.50;94.50;;;;;;5052572;28;20542;-90
2021/07/15 11:41:46;;;;;;;17.50;8.55;;;19.50;94.30;;;;;;5066063;28;20112;-87
2021/07/15 11:44:16;;;;;;;21.38;9.10;;;19.50;94.30;;;;;;5074464;28;20051;-87
2021/07/15 11:46:47;;;;;;;19.98;8.70;;;19.50;94.40;;;;;;5070479;28;20453;-88
2021/07/15 11:49:17;;;;;;;19.67;10.02;;;19.50;94.40;;;;;;5056682;28;20389;-89
2021/07/15 11:51:45;;;;;;;24.55;10.18;;;19.50;94.30;;;;;;5072873;28;20055;-90
2021/07/15 11:54:24;;;;;;;24.48;9.57;;;19.50;94.30;;;;;;5096566;28;20126;-91
2021/07/15 11:56:59;;;;;;;22.33;9.38;;;19.50;94.20;;;;;;5097741;28;20044;-90
2021/07/15 11:59:44;;;;;;;17.50;8.50;;;19.60;94.20;;;;;;5097449;28;20044;-91
2021/07/15 12:02:39;;;;;;;19.60;9.25;;;19.60;94.20;;;;;;5077138;28;20075;-88
2021/07/15 12:05:11;;;;;;;17.48;8.63;;;19.60;94.10;;;;;;5071083;28;20045;-91
2021/07/15 12:07:48;;;;;;;16.85;8.32;;;19.60;94.10;;;;;;5078257;28;20484;-89
2021/07/15 12:10:22;;;;;;;18.05;7.95;;;19.60;94.00;;;;;;5064073;28;20135;-95
2021/07/15 12:12:48;;;;;;;17.27;8.20;;;19.70;93.90;;;;;;5057895;28;20057;-92
2021/07/15 12:15:33;;;;;;;15.57;8.10;;;19.70;93.90;;;;;;5069182;28;20497;-89
2021/07/15 12:18:11;;;;;;;20.33;8.32;;;19.70;93.70;;;;;;5065009;28;20049;-91
2021/07/15 12:20:51;;;;;;;18.90;7.95;;;19.70;93.80;;;;;;5061476;28;20049;-93
2021/07/15 12:23:36;;;;;;;17.02;8.13;;;19.70;93.70;;;;;;5056949;28;20099;-91
2021/07/15 12:26:04;;;;;;;17.95;7.80;;;19.70;93.50;;;;;;5056653;28;20053;-92
2021/07/15 12:28:31;;;;;;;15.30;7.53;;;19.80;93.70;;;;;;5056772;28;20136;-91
2021/07/15 12:31:09;;;;;;;14.93;7.25;;;19.80;93.70;;;;;;5055771;28;20045;-87
2021/07/15 12:33:39;;;;;;;17.20;7.97;;;19.80;93.50;;;;;;5055874;28;20072;-90
2021/07/15 12:36:26;;;;;;;15.65;7.50;;;19.80;93.60;;;;;;5056778;28;20060;-89
2021/07/15 12:38:59;;;;;;;13.10;7.15;;;19.80;93.50;;;;;;5058326;28;20063;-89
2021/07/15 12:41:33;;;;;;;18.65;8.20;;;19.70;93.60;;;;;;5063042;28;20491;-91
2021/07/15 12:44:09;;;;;;;17.83;7.95;;;19.70;93.60;;;;;;5068753;28;20102;-89
2021/07/15 12:46:37;;;;;;;17.77;7.75;;;19.70;93.60;;;;;;5075650;28;20048;-91
2021/07/15 12:49:05;;;;;;;17.13;7.75;;;19.70;93.60;;;;;;5072133;28;20051;-91
2021/07/15 12:51:52;;;;;;;16.33;7.90;;;19.70;93.50;;;;;;5075765;28;20388;-92
2021/07/15 12:54:31;;;;;;;17.45;7.70;;;19.70;93.40;;;;;;5065550;28;20572;-92
2021/07/15 12:57:04;;;;;;;18.67;8.13;;;19.70;93.50;;;;;;5072450;28;20051;-91
2021/07/15 12:59:29;;;;;;;17.98;7.97;;;19.70;93.50;;;;;;5061487;28;20069;-91
2021/07/15 13:01:55;;;;;;;14.43;7.20;;;19.60;93.50;;;;;;5057303;28;20500;-91
2021/07/15 13:04:23;;;;;;;13.68;7.65;;;19.60;93.60;;;;;;5055772;28;20394;-92
2021/07/15 13:06:52;;;;;;;21.50;8.13;;;19.60;93.70;;;;;;5059044;28;20049;-94
2021/07/15 13:15:05;;;;;;;15.93;7.55;;;19.50;93.40;;;;;;5056428;28;20562;-92
2021/07/15 13:17:36;;;;;;;16.80;7.70;;;19.50;93.60;;;;;;5057122;28;20049;-93
2021/07/15 13:20:11;;;;;;;15.65;7.43;;;19.50;93.50;;;;;;5059747;28;20041;-95
2021/07/15 13:22:41;;;;;;;17.92;7.43;;;19.50;93.50;;;;;;5095060;28;20048;-90
2021/07/15 13:25:11;;;;;;;16.10;7.32;;;19.50;93.60;;;;;;5085286;28;20070;-92
2021/07/15 13:27:36;;;;;;;12.57;6.88;;;19.50;93.60;;;;;;5074587;28;20056;-92